createdAt,value
2022-10-11T04:15:51.441Z,101751.38
2022-10-11T04:18:30.756Z,101749.78
2022-10-11T04:21:10.922Z,101740.44
2022-10-11T04:23:49.229Z,101744.88
2022-10-11T04:26:27.164Z,101746.97
2022-10-11T04:29:05.536Z,101744.41
2022-10-11T04:31:43.014Z,101742.22
2022-10-11T04:34:22.217Z,101747.50
2022-10-11T04:37:00.949Z,101745.34
2022-10-11T04:39:39.593Z,101755.31
2022-10-11T04:42:17.804Z,101751.50
2022-10-11T04:44:55.531Z,101747.72
2022-10-11T04:47:33.832Z,101754.03
2022-10-11T04:50:12.443Z,101763.00
2022-10-11T04:52:50.511Z,101750.44
2022-10-11T04:55:29.228Z,101752.31
2022-10-11T04:58:06.698Z,101751.00
2022-10-11T05:00:45.138Z,101752.59
2022-10-11T05:03:25.498Z,101748.06
2022-10-11T05:06:05.856Z,101755.44
2022-10-11T05:08:46.149Z,101748.56
2022-10-11T05:11:24.403Z,101751.69
2022-10-11T05:14:02.403Z,101747.81
2022-10-11T05:16:40.411Z,101748.75
2022-10-11T05:19:19.723Z,101750.44
2022-10-11T05:21:57.362Z,101753.09
2022-10-11T05:24:35.509Z,101753.66
2022-10-11T05:27:13.712Z,101748.38
2022-10-11T05:29:52.228Z,101760.16
2022-10-11T05:32:28.345Z,101757.03
2022-10-11T05:35:06.948Z,101761.72
2022-10-11T05:37:44.902Z,101757.00
2022-10-11T05:40:21.292Z,101761.22
2022-10-11T05:43:00.068Z,101759.97
2022-10-11T05:45:40.032Z,101764.09
2022-10-11T05:48:17.647Z,101767.97
2022-10-11T05:51:14.331Z,101769.22
2022-10-11T05:53:53.164Z,101772.44
2022-10-11T05:56:31.555Z,101770.66
2022-10-11T05:59:09.518Z,101780.91
2022-10-11T06:01:48.739Z,101775.09
2022-10-11T06:04:27.270Z,101779.97
2022-10-11T06:07:06.804Z,101773.03
2022-10-11T06:09:46.195Z,101782.81
2022-10-11T06:12:23.428Z,101787.53
2022-10-11T06:15:28.027Z,101786.41
2022-10-11T06:18:25.604Z,101787.97
2022-10-11T06:21:30.035Z,101793.16
2022-10-11T06:24:25.964Z,101798.38
2022-10-11T06:27:20.597Z,101791.34
2022-10-11T06:30:15.967Z,101797.59
2022-10-11T06:33:11.918Z,101793.91
2022-10-11T06:36:15.046Z,101804.66
2022-10-11T06:39:11.100Z,101810.97
2022-10-11T06:42:06.772Z,101811.50
2022-10-11T06:44:59.088Z,101816.44
2022-10-11T06:47:55.520Z,101821.34
2022-10-11T06:51:00.053Z,101829.75
2022-10-11T06:53:55.893Z,101821.59
2022-10-11T06:56:51.121Z,101826.66
2022-10-11T06:59:58.300Z,101827.34
2022-10-11T07:02:50.373Z,101831.88
2022-10-11T07:05:46.123Z,101837.63
2022-10-11T07:08:42.054Z,101834.75
2022-10-11T07:11:38.820Z,101835.28
2022-10-11T07:14:59.847Z,101837.38
2022-10-11T07:17:36.828Z,101841.63
2022-10-11T07:20:28.913Z,101848.81
2022-10-11T07:23:06.887Z,101849.81
2022-10-11T07:26:15.283Z,101855.31
2022-10-11T07:29:12.638Z,101860.75
2022-10-11T07:32:04.525Z,101846.63
2022-10-11T07:34:56.517Z,101853.75
2022-10-11T07:37:48.820Z,101855.53
2022-10-11T07:40:43.184Z,101860.47
2022-10-11T07:43:36.817Z,101852.94
2022-10-11T07:46:34.141Z,101854.44
2022-10-11T07:49:26.213Z,101860.13
2022-10-11T07:52:22.490Z,101853.81
2022-10-11T07:55:15.287Z,101857.28
2022-10-11T07:58:10.678Z,101849.63
2022-10-11T08:01:02.526Z,101862.69
2022-10-11T08:04:06.521Z,101850.34
2022-10-11T08:06:58.852Z,101846.25
2022-10-11T08:09:52.841Z,101853.47
2022-10-11T08:12:47.602Z,101850.28
2022-10-11T08:15:45.512Z,101854.06
2022-10-11T08:18:43.466Z,101849.03
2022-10-11T08:21:38.971Z,101846.69
2022-10-11T08:24:38.335Z,101854.78
2022-10-11T08:27:32.387Z,101845.38
2022-10-11T08:30:29.641Z,101855.03
2022-10-11T08:33:25.751Z,101850.69
2022-10-11T08:36:29.208Z,101852.59
2022-10-11T08:39:24.848Z,101848.19
2022-10-11T08:42:34.897Z,101842.47
2022-10-11T08:45:19.475Z,101848.19
2022-10-11T08:47:47.760Z,101837.41
2022-10-11T08:50:20.642Z,101847.94
2022-10-11T08:52:53.353Z,101851.97
2022-10-11T08:55:34.755Z,101847.13
2022-10-11T08:58:02.557Z,101842.88
2022-10-11T09:00:33.010Z,101843.94
2022-10-11T09:03:55.128Z,101839.50
2022-10-11T09:06:40.315Z,101838.72
2022-10-11T09:09:20.265Z,101829.00
2022-10-11T09:11:53.546Z,101836.25
2022-10-11T09:15:24.414Z,101831.88
2022-10-11T09:18:22.470Z,101837.06
2022-10-11T09:20:59.621Z,101837.88
2022-10-11T09:24:02.369Z,101835.13
2022-10-11T09:26:38.531Z,101831.13
2022-10-11T09:29:08.730Z,101838.00
2022-10-11T09:31:37.304Z,101831.97
2022-10-11T09:34:13.531Z,101837.53
2022-10-11T09:36:54.325Z,101835.09
2022-10-11T09:39:35.521Z,101832.31
2022-10-11T09:42:11.568Z,101832.06
2022-10-11T09:44:50.143Z,101838.00
2022-10-11T09:47:25.099Z,101844.22
2022-10-11T09:49:57.927Z,101839.19
2022-10-11T09:52:26.403Z,101839.63
2022-10-11T09:55:00.615Z,101832.06
2022-10-11T09:57:33.444Z,101828.00
2022-10-11T10:00:03.804Z,101826.09
2022-10-11T10:02:56.283Z,101827.16
2022-10-11T10:05:26.201Z,101827.50
2022-10-11T10:08:09.120Z,101835.13
2022-10-11T10:10:42.817Z,101834.38
2022-10-11T10:13:21.822Z,101828.41
2022-10-11T10:15:56.401Z,101830.66
2022-10-11T10:18:39.390Z,101834.13
2022-10-11T10:21:13.349Z,101823.03
2022-10-11T10:23:43.496Z,101831.91
2022-10-11T10:26:17.074Z,101823.91
2022-10-11T10:29:10.627Z,101816.75
2022-10-11T10:32:01.994Z,101820.88
2022-10-11T10:34:35.569Z,101823.19
2022-10-11T10:37:25.532Z,101823.34
2022-10-11T10:40:19.036Z,101827.50
2022-10-11T10:42:46.928Z,101836.50
2022-10-11T10:45:21.210Z,101827.63
2022-10-11T10:48:16.509Z,101819.28
2022-10-11T10:50:56.095Z,101819.63
2022-10-11T10:53:34.699Z,101813.63
2022-10-11T10:56:12.421Z,101810.63
2022-10-11T10:59:00.019Z,101813.66
2022-10-11T11:01:30.542Z,101808.91
2022-10-11T11:04:21.834Z,101808.91
2022-10-11T11:06:58.207Z,101813.19
2022-10-11T11:09:28.589Z,101804.59
2022-10-11T11:12:08.423Z,101803.81
2022-10-11T11:14:44.461Z,101808.41
2022-10-11T11:17:45.936Z,101796.00
2022-10-11T11:20:28.556Z,101800.84
2022-10-11T11:22:58.761Z,101799.25
2022-10-11T11:25:53.356Z,101797.50
2022-10-11T11:28:40.460Z,101793.09
2022-10-11T11:31:36.700Z,101790.22
2022-10-11T11:34:29.303Z,101778.47
2022-10-11T11:37:01.796Z,101779.97
2022-10-11T11:39:49.009Z,101781.50
2022-10-11T11:42:28.937Z,101779.06
2022-10-11T11:45:02.431Z,101767.06
2022-10-11T11:47:55.449Z,101771.03
2022-10-11T11:50:27.937Z,101774.06
2022-10-11T11:53:12.244Z,101771.81
2022-10-11T11:55:51.824Z,101772.06
2022-10-11T11:58:34.196Z,101763.34
2022-10-11T12:01:13.382Z,101760.09
2022-10-11T12:03:46.395Z,101763.00
2022-10-11T12:06:14.013Z,101765.44
2022-10-11T12:08:46.289Z,101754.81
2022-10-11T12:11:26.002Z,101754.09
2022-10-11T12:13:54.791Z,101755.53
2022-10-11T12:16:22.977Z,101748.47
2022-10-11T12:18:56.049Z,101751.75
2022-10-11T12:21:37.785Z,101753.84
2022-10-11T12:24:11.049Z,101749.28
2022-10-11T12:26:46.858Z,101751.72
2022-10-11T12:29:17.416Z,101751.84
2022-10-11T12:32:05.626Z,101743.22
2022-10-11T12:37:17.698Z,101741.91
2022-10-11T12:39:56.269Z,101742.97
2022-10-11T12:42:35.458Z,101736.75
2022-10-11T12:45:12.729Z,101736.28
2022-10-11T12:47:51.997Z,101730.84
2022-10-11T12:50:38.013Z,101729.81
2022-10-11T12:54:07.989Z,101733.28
2022-10-11T12:56:44.224Z,101732.03
2022-10-11T12:59:23.824Z,101733.09
2022-10-11T13:01:56.579Z,101728.25
2022-10-11T13:04:33.273Z,101727.63
2022-10-11T13:07:11.676Z,101726.28
2022-10-11T13:09:41.589Z,101723.09
2022-10-11T13:12:15.304Z,101715.44
2022-10-11T13:14:45.545Z,101719.09
2022-10-11T13:17:19.470Z,101708.38
2022-10-11T13:19:58.688Z,101706.47
2022-10-11T13:22:27.029Z,101704.22
2022-10-11T13:25:00.137Z,101702.53
2022-10-11T13:27:27.775Z,101701.59
2022-10-11T13:30:00.042Z,101705.25
2022-10-11T13:32:30.254Z,101659.53
2022-10-11T13:35:01.928Z,101631.22
2022-10-11T13:37:31.463Z,101632.44
2022-10-11T13:39:59.427Z,101630.16
2022-10-11T13:42:32.512Z,101619.16
2022-10-11T13:45:00.717Z,101611.47
2022-10-11T13:47:30.699Z,101612.50
2022-10-11T13:50:31.641Z,101599.81
2022-10-11T13:53:09.528Z,101579.97
2022-10-11T13:55:50.155Z,101579.97
2022-10-11T13:58:27.112Z,101559.88
2022-10-11T14:01:24.738Z,101545.66
2022-10-11T14:04:04.110Z,101535.03
2022-10-11T14:06:49.797Z,101540.09
2022-10-11T14:09:39.559Z,101531.78
2022-10-11T14:12:30.871Z,101530.94
2022-10-11T14:15:04.100Z,101529.59
2022-10-11T14:17:42.265Z,101531.34
2022-10-11T14:20:17.322Z,101536.09
2022-10-11T14:22:45.226Z,101540.25
2022-10-11T14:25:12.729Z,101555.22
2022-10-11T14:27:42.514Z,101571.44
2022-10-11T14:30:25.755Z,101582.88
2022-10-11T14:32:58.636Z,101592.78
2022-10-11T14:35:31.790Z,101597.81
2022-10-11T14:37:59.435Z,101604.19
2022-10-11T14:40:30.234Z,101612.69
2022-10-11T14:42:57.805Z,101606.44
2022-10-11T14:45:25.778Z,101617.69
2022-10-11T14:47:53.564Z,101621.50
2022-10-11T14:50:34.094Z,101622.22
2022-10-11T14:53:01.469Z,101629.25
2022-10-11T14:55:30.329Z,101630.22
2022-10-11T14:57:58.161Z,101626.78
2022-10-11T15:00:28.501Z,101621.06
2022-10-11T15:02:56.240Z,101629.06
2022-10-11T15:05:28.687Z,101632.19
2022-10-11T15:07:59.040Z,101635.72
2022-10-11T15:10:38.558Z,101634.34
2022-10-11T15:13:07.292Z,101644.47
2022-10-11T15:15:37.000Z,101625.41
2022-10-11T15:18:06.399Z,101632.31
2022-10-11T15:20:38.191Z,101632.16
2022-10-11T15:23:07.805Z,101625.88
2022-10-11T15:25:37.734Z,101616.38
2022-10-11T15:28:06.617Z,101615.31
2022-10-11T15:30:41.044Z,101625.53
2022-10-11T15:33:09.377Z,101616.72
2022-10-11T15:35:36.824Z,101623.75
2022-10-11T15:38:04.489Z,101614.84
2022-10-11T15:40:37.068Z,101617.94
2022-10-11T15:43:04.699Z,101622.63
2022-10-11T15:45:31.972Z,101621.56
2022-10-11T15:47:59.321Z,101621.22
2022-10-11T15:50:37.366Z,101615.69
2022-10-11T15:53:07.484Z,101621.63
2022-10-11T15:55:38.492Z,101621.22
2022-10-11T15:58:07.185Z,101623.22
2022-10-11T16:00:34.422Z,101626.50
2022-10-11T16:03:01.628Z,101624.66
2022-10-11T16:05:30.360Z,101630.28
2022-10-11T16:07:57.587Z,101627.19
2022-10-11T16:10:24.829Z,101625.69
2022-10-11T16:12:52.118Z,101624.06
2022-10-11T16:15:19.305Z,101620.94
2022-10-11T16:17:47.049Z,101626.94
2022-10-11T16:20:15.336Z,101623.69
2022-10-11T16:22:43.082Z,101621.38
2022-10-11T16:25:10.607Z,101626.19
2022-10-11T16:27:37.929Z,101623.66
2022-10-11T16:30:06.292Z,101628.50
2022-10-11T16:32:34.167Z,101633.91
2022-10-11T16:35:01.498Z,101637.56
2022-10-11T16:37:31.864Z,101631.91
2022-10-11T16:39:59.468Z,101639.34
2022-10-11T16:42:27.387Z,101629.47
2022-10-11T16:44:54.620Z,101643.97
2022-10-11T16:47:21.872Z,101646.00
2022-10-11T16:49:49.499Z,101645.31
2022-10-11T16:52:17.373Z,101641.53
2022-10-11T16:54:46.666Z,101654.47
2022-10-11T16:57:16.836Z,101648.56
2022-10-11T16:59:44.751Z,101652.16
2022-10-11T17:02:21.708Z,101661.75
2022-10-11T17:04:51.373Z,101662.97
2022-10-11T17:07:19.506Z,101663.88
2022-10-11T17:09:48.600Z,101668.91
2022-10-11T17:12:18.590Z,101672.78
2022-10-11T17:14:46.882Z,101676.13
2022-10-11T17:17:14.618Z,101669.28
2022-10-11T17:19:45.325Z,101673.00
2022-10-11T17:22:18.397Z,101673.97
2022-10-11T17:24:45.923Z,101686.91
2022-10-11T17:27:13.551Z,101681.97
2022-10-11T17:29:40.935Z,101684.00
2022-10-11T17:32:08.330Z,101690.44
2022-10-11T17:34:36.044Z,101686.28
2022-10-11T17:37:04.173Z,101696.00
2022-10-11T17:39:32.044Z,101699.88
2022-10-11T17:42:04.905Z,101702.47
2022-10-11T17:44:32.195Z,101694.28
2022-10-11T17:47:00.300Z,101707.00
2022-10-11T17:49:27.596Z,101696.97
2022-10-11T17:51:56.558Z,101700.59
2022-10-11T17:54:24.435Z,101703.31
2022-10-11T17:56:51.755Z,101705.09
2022-10-11T17:59:27.284Z,101700.41
2022-10-11T18:01:54.884Z,101698.44
2022-10-11T18:04:26.671Z,101702.72
2022-10-11T18:06:54.204Z,101707.78
2022-10-11T18:09:22.561Z,101701.72
2022-10-11T18:11:50.775Z,101701.78
2022-10-11T18:14:18.416Z,101703.56
2022-10-11T18:16:45.905Z,101698.72
2022-10-11T18:19:14.415Z,101700.25
2022-10-11T18:21:42.076Z,101692.69
2022-10-11T18:24:15.406Z,101695.03
2022-10-11T18:26:47.088Z,101700.31
2022-10-11T18:29:15.981Z,101695.69
2022-10-11T18:31:43.301Z,101696.59
2022-10-11T18:34:12.931Z,101697.69
2022-10-11T18:36:40.295Z,101700.72
2022-10-11T18:39:09.598Z,101698.06
2022-10-11T18:41:39.110Z,101697.69
2022-10-11T18:44:08.545Z,101707.00
2022-10-11T18:46:36.343Z,101708.75
2022-10-11T18:49:04.277Z,101712.19
2022-10-11T18:51:34.128Z,101710.56
2022-10-11T18:54:01.892Z,101714.78
2022-10-11T18:56:31.211Z,101716.31
2022-10-11T18:58:59.272Z,101716.97
2022-10-11T19:01:32.548Z,101729.06
2022-10-11T19:04:01.877Z,101734.94
2022-10-11T19:06:32.528Z,101729.31
2022-10-11T19:09:09.227Z,101731.53
2022-10-11T19:11:37.787Z,101724.66
2022-10-11T19:14:08.287Z,101725.72
2022-10-11T19:16:38.604Z,101729.56
2022-10-11T19:19:06.883Z,101732.59
2022-10-11T19:21:34.150Z,101732.41
2022-10-11T19:24:01.841Z,101729.75
2022-10-11T19:26:33.530Z,101736.31
2022-10-11T19:29:04.875Z,101738.84
2022-10-11T19:31:34.053Z,101738.84
2022-10-11T19:34:02.375Z,101740.38
2022-10-11T19:36:34.019Z,101738.22
2022-10-11T19:39:05.595Z,101743.97
2022-10-11T19:41:33.312Z,101738.78
2022-10-11T19:44:03.646Z,101739.59
2022-10-11T19:49:21.403Z,101746.59
2022-10-11T19:51:49.317Z,101746.91
2022-10-11T19:54:17.503Z,101757.91
2022-10-11T19:56:44.983Z,101746.91
2022-10-11T19:59:14.585Z,101756.63
2022-10-11T20:01:43.305Z,101755.34
2022-10-11T20:04:27.792Z,101763.19
2022-10-11T20:07:00.406Z,101757.94
2022-10-11T20:09:30.014Z,101767.66
2022-10-11T20:11:58.294Z,101754.53
2022-10-11T20:14:27.041Z,101764.06
2022-10-11T20:16:54.388Z,101767.22
2022-10-11T20:19:27.745Z,101771.03
2022-10-11T20:21:58.244Z,101762.97
2022-10-11T20:24:27.406Z,101767.41
2022-10-11T20:26:55.219Z,101779.91
2022-10-11T20:29:25.213Z,101783.28
2022-10-11T20:31:52.601Z,101783.50
2022-10-11T20:34:19.913Z,101786.88
2022-10-11T20:36:49.224Z,101789.63
2022-10-11T20:39:18.187Z,101784.78
2022-10-11T20:41:45.545Z,101788.78
2022-10-11T20:44:15.763Z,101783.91
2022-10-11T20:46:43.490Z,101786.03
2022-10-11T20:49:11.847Z,101788.13
2022-10-11T20:51:41.659Z,101796.16
2022-10-11T20:54:10.688Z,101799.34
2022-10-11T20:56:38.606Z,101795.34
2022-10-11T20:59:07.492Z,101804.22
2022-10-11T21:01:37.700Z,101803.34
2022-10-11T21:04:06.169Z,101806.31
2022-10-11T21:06:34.319Z,101803.16
2022-10-11T21:09:01.750Z,101804.41
2022-10-11T21:11:33.552Z,101810.56
2022-10-11T21:14:03.843Z,101810.53
2022-10-11T21:16:32.756Z,101810.53
2022-10-11T21:19:01.152Z,101815.63
2022-10-11T21:21:29.688Z,101810.94
2022-10-11T21:24:00.371Z,101815.81
2022-10-11T21:26:28.593Z,101804.84
2022-10-11T21:28:56.058Z,101803.13
2022-10-11T21:31:23.975Z,101803.97
2022-10-11T21:33:51.563Z,101806.94
2022-10-11T21:36:21.088Z,101806.72
2022-10-11T21:38:49.751Z,101800.41
2022-10-11T21:41:22.104Z,101800.16
2022-10-11T21:43:49.764Z,101805.69
2022-10-11T21:46:19.131Z,101797.00
2022-10-11T21:48:47.310Z,101804.16
2022-10-11T21:51:17.376Z,101801.81
2022-10-11T21:53:45.052Z,101802.44
2022-10-11T21:56:12.758Z,101808.22
2022-10-11T21:58:40.648Z,101804.69
2022-10-11T22:01:10.191Z,101806.03
2022-10-11T22:03:37.948Z,101805.53
2022-10-11T22:06:06.122Z,101812.25
2022-10-11T22:08:34.137Z,101813.41
2022-10-11T22:11:01.937Z,101808.28
2022-10-11T22:13:32.230Z,101808.88
2022-10-11T22:16:10.919Z,101805.13
2022-10-11T22:18:39.046Z,101809.22
2022-10-11T22:21:12.492Z,101810.59
2022-10-11T22:23:41.069Z,101802.09
